Time;durP1;ratioP1;P1;durP2;ratioP2;P2;SDS_P1;SDS_P2;PMS_P1;PMS_P2;Temp;Humidity;BMP_temperature;BMP_pressure;BME280_temperature;BME280_humidity;BME280_pressure;Samples;Min_cycle;Max_cycle;Signal;HPM_P1;HPM_P2
2022/05/24 00:02:12;;;;;;;12.95;4.00;;;;;;;;;;10408319;28;20548;-71
2022/05/24 00:07:12;;;;;;;10.98;4.15;;;;;;;;;;10410156;28;20029;-72
2022/05/24 00:12:12;;;;;;;11.73;4.07;;;;;;;;;;10408388;28;20021;-73
2022/05/24 00:17:13;;;;;;;5.43;3.78;;;;;;;;;;10408139;28;20451;-71
2022/05/24 00:22:13;;;;;;;7.00;3.25;;;;;;;;;;10409259;28;20049;-72
2022/05/24 00:27:13;;;;;;;8.68;3.45;;;;;;;;;;10408097;28;20026;-73
2022/05/24 00:32:14;;;;;;;9.00;4.88;;;;;;;;;;10407401;28;20036;-73
2022/05/24 00:37:15;;;;;;;6.50;3.35;;;;;;;;;;10408736;28;20029;-72
2022/05/24 00:42:24;;;;;;;7.35;3.30;;;;;;;;;;10407552;28;20045;-71
2022/05/24 00:47:31;;;;;;;5.15;3.10;;;;;;;;;;10407085;28;20025;-71
2022/05/24 00:52:31;;;;;;;5.90;3.83;;;;;;;;;;10406971;28;20021;-74
2022/05/24 00:57:36;;;;;;;9.13;3.35;;;;;;;;;;10406698;28;20021;-72
2022/05/24 01:02:37;;;;;;;4.45;3.20;;;;;;;;;;10406430;28;20020;-70
2022/05/24 01:07:37;;;;;;;7.05;3.30;;;;;;;;;;10410557;28;20439;-72
2022/05/24 01:12:44;;;;;;;10.70;4.33;;;;;;;;;;10404883;28;20017;-73
2022/05/24 01:17:45;;;;;;;8.85;3.70;;;;;;;;;;10405995;28;20363;-72
2022/05/24 01:23:04;;;;;;;4.82;3.40;;;;;;;;;;10405810;28;20049;-72
2022/05/24 01:28:08;;;;;;;7.80;4.10;;;;;;;;;;10389213;28;20017;-73
2022/05/24 01:38:27;;;;;;;5.63;3.65;;;;;;;;;;10406600;28;20022;-72
2022/05/24 01:43:28;;;;;;;7.90;3.60;;;;;;;;;;10405072;28;20409;-75
2022/05/24 01:48:37;;;;;;;5.47;3.42;;;;;;;;;;10404838;28;20405;-76
2022/05/24 01:53:43;;;;;;;7.03;4.45;;;;;;;;;;10404921;28;20629;-75
2022/05/24 01:58:46;;;;;;;9.98;4.93;;;;;;;;;;10405545;28;20050;-72
2022/05/24 02:03:46;;;;;;;7.60;3.97;;;;;;;;;;10404430;28;20037;-78
2022/05/24 02:08:47;;;;;;;11.82;5.15;;;;;;;;;;10404080;28;20172;-72
2022/05/24 02:13:48;;;;;;;8.67;5.27;;;;;;;;;;10404245;28;20048;-71
2022/05/24 02:18:49;;;;;;;8.27;4.22;;;;;;;;;;10388038;28;20029;-72
2022/05/24 02:23:50;;;;;;;7.65;4.18;;;;;;;;;;10403750;28;20021;-73
2022/05/24 02:28:54;;;;;;;6.55;4.35;;;;;;;;;;10404022;28;20413;-73
2022/05/24 02:33:55;;;;;;;8.35;4.93;;;;;;;;;;10403161;28;20033;-73
2022/05/24 02:38:55;;;;;;;10.00;4.65;;;;;;;;;;10402566;28;20022;-73
2022/05/24 02:43:56;;;;;;;13.27;6.10;;;;;;;;;;10402761;28;20013;-73
2022/05/24 02:48:57;;;;;;;10.32;5.22;;;;;;;;;;10403565;28;20045;-71
2022/05/24 02:53:57;;;;;;;8.77;4.80;;;;;;;;;;10402789;28;20116;-70
2022/05/24 02:58:57;;;;;;;11.27;5.32;;;;;;;;;;10402762;28;20076;-77
2022/05/24 03:03:57;;;;;;;11.50;5.63;;;;;;;;;;10407669;28;20109;-72
2022/05/24 03:14:16;;;;;;;;;;;;;;;;;;10403727;28;20057;-78
2022/05/24 03:19:16;;;;;;;14.60;6.07;;;;;;;;;;10401952;28;20008;-74
2022/05/24 03:24:17;;;;;;;15.30;6.22;;;;;;;;;;10402183;28;20480;-73
2022/05/24 03:29:17;;;;;;;15.17;5.90;;;;;;;;;;10402669;28;20030;-73
2022/05/24 03:34:17;;;;;;;15.48;6.38;;;;;;;;;;10404541;28;20024;-75
2022/05/24 03:39:18;;;;;;;14.90;6.20;;;;;;;;;;10409813;28;20467;-74
2022/05/24 03:44:19;;;;;;;11.48;5.97;;;;;;;;;;10409931;28;20612;-72
2022/05/24 03:49:20;;;;;;;10.88;5.88;;;;;;;;;;10409039;28;20445;-71
2022/05/24 03:54:20;;;;;;;12.02;5.95;;;;;;;;;;10392591;28;20026;-72
2022/05/24 03:59:21;;;;;;;16.15;6.97;;;;;;;;;;10409525;28;20642;-72
2022/05/24 04:04:21;;;;;;;10.63;5.85;;;;;;;;;;10408340;28;20517;-74
2022/05/24 04:09:21;;;;;;;13.02;6.25;;;;;;;;;;10408497;28;20021;-72
2022/05/24 04:14:21;;;;;;;20.40;6.93;;;;;;;;;;10409862;28;20044;-71
2022/05/24 04:19:22;;;;;;;15.68;6.45;;;;;;;;;;10452341;23;20057;-70
2022/05/24 04:24:22;;;;;;;16.42;6.75;;;;;;;;;;10449322;28;20025;-72
2022/05/24 04:29:22;;;;;;;12.00;6.13;;;;;;;;;;10449217;28;20115;-72
2022/05/24 04:34:23;;;;;;;12.20;6.53;;;;;;;;;;10448733;28;20033;-71
2022/05/24 04:39:23;;;;;;;10.63;5.50;;;;;;;;;;10448330;28;20021;-78
2022/05/24 04:44:23;;;;;;;15.23;6.57;;;;;;;;;;10448606;28;20041;-72
2022/05/24 04:49:24;;;;;;;8.23;5.65;;;;;;;;;;10448692;28;20029;-77
2022/05/24 04:54:24;;;;;;;10.55;5.78;;;;;;;;;;10447796;28;20033;-72
2022/05/24 04:59:24;;;;;;;13.27;5.03;;;;;;;;;;10449153;28;20037;-72
2022/05/24 05:04:25;;;;;;;7.60;4.80;;;;;;;;;;10449033;28;20021;-73
2022/05/24 05:09:25;;;;;;;14.95;6.22;;;;;;;;;;10447256;28;20020;-74
2022/05/24 05:14:25;;;;;;;7.80;4.83;;;;;;;;;;10448456;28;20108;-72
2022/05/24 05:19:27;;;;;;;9.52;5.00;;;;;;;;;;10448965;28;20056;-76
2022/05/24 05:24:28;;;;;;;9.40;4.20;;;;;;;;;;10446935;28;20056;-73
2022/05/24 05:34:47;;;;;;;9.25;4.68;;;;;;;;;;10448156;28;20025;-71
2022/05/24 05:39:47;;;;;;;9.30;4.90;;;;;;;;;;10429824;28;20021;-73
2022/05/24 05:44:49;;;;;;;7.40;5.13;;;;;;;;;;10429055;28;20259;-73
2022/05/24 05:49:50;;;;;;;6.68;4.38;;;;;;;;;;10446103;28;20543;-79
2022/05/24 05:54:51;;;;;;;6.45;3.92;;;;;;;;;;10445743;28;20029;-79
2022/05/24 05:59:52;;;;;;;9.52;4.63;;;;;;;;;;10444993;28;20037;-74
2022/05/24 06:04:52;;;;;;;5.25;3.55;;;;;;;;;;10445003;28;20021;-72
2022/05/24 06:09:52;;;;;;;7.60;3.50;;;;;;;;;;10446260;28;20028;-71
2022/05/24 06:14:53;;;;;;;8.80;4.15;;;;;;;;;;10444667;28;20021;-76
2022/05/24 06:19:53;;;;;;;9.45;3.05;;;;;;;;;;10444860;28;20572;-75
2022/05/24 06:24:53;;;;;;;12.13;3.63;;;;;;;;;;10444283;28;20104;-73
2022/05/24 06:29:54;;;;;;;5.68;3.47;;;;;;;;;;10444253;28;20051;-78
2022/05/24 06:34:54;;;;;;;8.67;3.77;;;;;;;;;;10444195;28;20048;-72
2022/05/24 06:39:55;;;;;;;6.95;3.50;;;;;;;;;;10443748;28;20024;-73
2022/05/24 06:44:56;;;;;;;12.85;3.88;;;;;;;;;;10443673;28;20382;-72
2022/05/24 06:49:57;;;;;;;10.70;4.53;;;;;;;;;;10443314;28;20024;-74
2022/05/24 06:54:57;;;;;;;7.50;3.65;;;;;;;;;;10443515;28;20025;-72
2022/05/24 07:05:20;;;;;;;11.35;3.83;;;;;;;;;;10445242;28;20025;-72
2022/05/24 07:10:21;;;;;;;8.80;3.90;;;;;;;;;;10448017;28;20028;-72
2022/05/24 07:15:21;;;;;;;9.03;4.50;;;;;;;;;;10451983;28;20024;-72
2022/05/24 07:20:22;;;;;;;5.50;3.10;;;;;;;;;;10450926;28;20299;-72
2022/05/24 07:25:22;;;;;;;4.90;3.08;;;;;;;;;;10451375;28;20053;-73
2022/05/24 07:30:23;;;;;;;4.93;2.70;;;;;;;;;;10450732;28;20112;-73
2022/05/24 07:35:23;;;;;;;7.97;3.40;;;;;;;;;;10450882;28;20806;-70
2022/05/24 07:45:48;;;;;;;7.00;4.45;;;;;;;;;;10451716;28;20481;-73
2022/05/24 07:50:50;;;;;;;11.35;3.10;;;;;;;;;;10450139;28;20013;-72
2022/05/24 07:55:51;;;;;;;9.18;3.53;;;;;;;;;;10449999;28;20041;-72
2022/05/24 08:00:54;;;;;;;5.78;3.00;;;;;;;;;;10449814;28;20488;-71
2022/05/24 08:05:54;;;;;;;8.80;3.30;;;;;;;;;;10450162;28;20021;-70
2022/05/24 08:10:55;;;;;;;14.03;4.77;;;;;;;;;;10449572;28;20481;-71
2022/05/24 08:15:56;;;;;;;10.43;2.80;;;;;;;;;;10449165;28;20877;-71
2022/05/24 08:20:57;;;;;;;5.82;2.83;;;;;;;;;;10449192;28;20098;-71
2022/05/24 08:25:57;;;;;;;14.40;4.40;;;;;;;;;;10448976;28;20047;-77
2022/05/24 08:30:59;;;;;;;8.98;2.67;;;;;;;;;;10448910;28;20029;-74
2022/05/24 08:35:59;;;;;;;13.18;2.75;;;;;;;;;;10449829;28;20020;-72
2022/05/24 08:41:01;;;;;;;7.68;2.83;;;;;;;;;;10448227;28;20025;-72
2022/05/24 08:51:28;;;;;;;6.28;2.30;;;;;;;;;;10450099;28;20111;-71
2022/05/24 08:56:30;;;;;;;6.85;2.42;;;;;;;;;;10447809;28;20025;-73
2022/05/24 09:01:32;;;;;;;8.35;2.63;;;;;;;;;;10447099;28;20017;-74
2022/05/24 09:06:36;;;;;;;6.15;2.45;;;;;;;;;;10447782;28;20017;-73
2022/05/24 09:11:42;;;;;;;7.30;2.53;;;;;;;;;;10447228;28;20024;-73
2022/05/24 09:16:51;;;;;;;6.97;2.70;;;;;;;;;;10447162;28;20068;-71
2022/05/24 09:21:54;;;;;;;8.07;2.83;;;;;;;;;;10446876;28;20021;-71
2022/05/24 09:27:10;;;;;;;7.25;2.55;;;;;;;;;;10446600;28;20021;-71
2022/05/24 09:32:10;;;;;;;10.07;2.63;;;;;;;;;;10445773;28;20027;-72
2022/05/24 09:37:23;;;;;;;7.00;2.40;;;;;;;;;;10452957;28;20037;-71
2022/05/24 09:42:27;;;;;;;5.78;2.58;;;;;;;;;;10445955;28;20035;-71
2022/05/24 09:47:30;;;;;;;9.40;2.58;;;;;;;;;;10445676;28;20021;-73
2022/05/24 09:52:30;;;;;;;8.20;3.10;;;;;;;;;;10445481;28;20283;-71
2022/05/24 09:57:33;;;;;;;7.38;2.65;;;;;;;;;;10444924;28;20021;-73
2022/05/24 10:02:34;;;;;;;6.70;2.75;;;;;;;;;;10446610;28;20118;-73
2022/05/24 10:07:35;;;;;;;7.10;2.80;;;;;;;;;;10445148;28;20476;-72
2022/05/24 10:12:44;;;;;;;11.50;3.10;;;;;;;;;;10444982;28;20024;-73
2022/05/24 10:17:56;;;;;;;6.10;2.47;;;;;;;;;;10445859;28;20057;-73
2022/05/24 10:23:09;;;;;;;4.68;2.78;;;;;;;;;;10444426;28;20057;-74
2022/05/24 10:28:16;;;;;;;5.40;2.60;;;;;;;;;;10444422;28;20463;-73
2022/05/24 10:38:49;;;;;;;3.83;2.25;;;;;;;;;;10445286;28;20057;-72
2022/05/24 10:44:01;;;;;;;6.15;2.90;;;;;;;;;;10444987;28;20463;-72
2022/05/24 10:49:08;;;;;;;8.00;3.25;;;;;;;;;;10443690;28;20041;-80
2022/05/24 10:54:27;;;;;;;7.28;3.08;;;;;;;;;;10443148;28;20403;-74
2022/05/24 10:59:28;;;;;;;4.50;2.38;;;;;;;;;;10443086;28;20543;-76
2022/05/24 11:04:45;;;;;;;6.88;3.03;;;;;;;;;;10443526;28;20025;-77
2022/05/24 11:09:50;;;;;;;5.63;3.22;;;;;;;;;;10443837;28;20021;-73
2022/05/24 11:14:54;;;;;;;6.80;3.72;;;;;;;;;;10443102;28;20075;-71
2022/05/24 11:19:55;;;;;;;10.75;3.80;;;;;;;;;;10442555;28;20049;-73
2022/05/24 11:25:02;;;;;;;7.60;4.13;;;;;;;;;;10443002;28;20033;-72
2022/05/24 11:30:16;;;;;;;11.20;4.47;;;;;;;;;;10443101;28;20025;-71
2022/05/24 11:35:19;;;;;;;6.20;4.10;;;;;;;;;;10443057;28;20124;-73
2022/05/24 11:40:30;;;;;;;6.35;4.40;;;;;;;;;;10442530;28;20059;-73
2022/05/24 11:45:31;;;;;;;9.52;4.38;;;;;;;;;;10442357;28;20013;-72
2022/05/24 11:50:32;;;;;;;6.05;4.25;;;;;;;;;;10442430;28;20062;-72
2022/05/24 11:55:43;;;;;;;9.80;5.07;;;;;;;;;;10445564;28;20472;-74
2022/05/24 12:00:54;;;;;;;12.68;5.75;;;;;;;;;;10450503;28;20032;-75
2022/05/24 12:11:33;;;;;;;9.30;4.47;;;;;;;;;;10451661;28;20600;-77
2022/05/24 12:16:36;;;;;;;15.38;4.57;;;;;;;;;;10448839;28;20556;-74
2022/05/24 12:21:38;;;;;;;10.25;5.32;;;;;;;;;;10449239;28;19924;-73
2022/05/24 12:26:57;;;;;;;9.05;5.13;;;;;;;;;;10449216;28;20025;-78
2022/05/24 12:32:03;;;;;;;9.52;4.53;;;;;;;;;;10449320;28;20075;-72
2022/05/24 12:37:14;;;;;;;14.25;5.10;;;;;;;;;;10432198;28;20107;-72
2022/05/24 12:42:15;;;;;;;13.23;4.88;;;;;;;;;;10449054;28;20393;-75
2022/05/24 12:47:16;;;;;;;10.07;4.93;;;;;;;;;;10448006;28;20017;-71
2022/05/24 12:52:22;;;;;;;11.15;4.50;;;;;;;;;;10447948;28;20116;-76
2022/05/24 12:57:28;;;;;;;10.15;4.70;;;;;;;;;;10448634;28;20472;-71
2022/05/24 13:02:33;;;;;;;9.32;4.50;;;;;;;;;;10447440;28;20021;-74
2022/05/24 13:07:39;;;;;;;13.27;5.72;;;;;;;;;;10446566;28;20021;-73
2022/05/24 13:12:41;;;;;;;17.95;6.10;;;;;;;;;;10447717;28;20107;-71
2022/05/24 13:17:43;;;;;;;11.10;6.35;;;;;;;;;;10446625;28;20053;-71
2022/05/24 13:22:46;;;;;;;8.18;4.93;;;;;;;;;;10446761;28;20432;-71
2022/05/24 13:27:49;;;;;;;14.77;5.60;;;;;;;;;;10446562;28;20544;-71
2022/05/24 13:38:08;;;;;;;12.35;5.90;;;;;;;;;;10447692;28;20028;-72
2022/05/24 13:43:08;;;;;;;10.87;5.47;;;;;;;;;;10430166;28;20024;-71
2022/05/24 13:48:23;;;;;;;12.37;5.30;;;;;;;;;;10445669;28;20031;-74
2022/05/24 13:53:26;;;;;;;11.30;5.07;;;;;;;;;;10446857;28;20366;-73
2022/05/24 13:58:37;;;;;;;10.77;4.93;;;;;;;;;;10445894;28;20115;-73
2022/05/24 14:03:41;;;;;;;16.92;5.72;;;;;;;;;;10446081;28;20055;-72
2022/05/24 14:08:42;;;;;;;7.22;4.82;;;;;;;;;;10445553;28;20039;-73
2022/05/24 14:13:43;;;;;;;27.23;7.40;;;;;;;;;;10445148;28;20531;-72
2022/05/24 14:18:44;;;;;;;11.77;6.15;;;;;;;;;;10443747;28;20044;-72
2022/05/24 14:23:45;;;;;;;8.95;5.50;;;;;;;;;;10444816;28;20025;-72
2022/05/24 14:28:45;;;;;;;16.20;5.38;;;;;;;;;;10444031;28;20503;-72
2022/05/24 14:33:45;;;;;;;16.67;5.05;;;;;;;;;;10444286;28;20025;-75
2022/05/24 14:38:48;;;;;;;8.25;4.20;;;;;;;;;;10444062;28;20692;-73
2022/05/24 14:43:59;;;;;;;14.57;5.68;;;;;;;;;;10445247;28;20028;-72
2022/05/24 14:49:00;;;;;;;17.30;5.00;;;;;;;;;;10443495;28;20488;-71
2022/05/24 14:54:01;;;;;;;14.25;5.22;;;;;;;;;;10443325;28;20036;-75
2022/05/24 14:59:01;;;;;;;7.85;4.50;;;;;;;;;;10444374;28;20064;-72
2022/05/24 15:04:01;;;;;;;11.57;5.18;;;;;;;;;;10442665;28;20938;-75
2022/05/24 15:20:00;;;;;;;21.80;5.93;;;;;;;;;;10276109;28;20073;-73
2022/05/24 15:25:03;;;;;;;8.77;5.55;;;;;;;;;;10364499;28;20040;-73
2022/05/24 15:30:07;;;;;;;8.45;4.15;;;;;;;;;;10404670;28;20034;-74
2022/05/24 15:35:07;;;;;;;11.30;4.40;;;;;;;;;;10397347;28;20030;-72
2022/05/24 15:40:08;;;;;;;7.47;4.22;;;;;;;;;;10412396;28;20030;-72
2022/05/24 15:45:10;;;;;;;12.23;4.72;;;;;;;;;;10412918;28;20076;-72
2022/05/24 15:50:10;;;;;;;9.32;4.40;;;;;;;;;;10409717;28;20021;-72
2022/05/24 15:55:11;;;;;;;12.17;5.37;;;;;;;;;;10410105;28;20489;-76
2022/05/24 16:00:13;;;;;;;7.90;4.47;;;;;;;;;;10392149;28;20071;-71
2022/05/24 16:10:33;;;;;;;7.32;4.50;;;;;;;;;;10409685;28;20029;-72
2022/05/24 16:15:33;;;;;;;5.60;4.45;;;;;;;;;;10409509;28;20054;-77
2022/05/24 16:20:35;;;;;;;7.47;4.90;;;;;;;;;;10408299;28;20099;-73
2022/05/24 16:25:36;;;;;;;10.00;5.15;;;;;;;;;;10407852;28;20028;-73
2022/05/24 16:30:36;;;;;;;7.20;4.80;;;;;;;;;;10407726;28;20031;-73
2022/05/24 16:35:37;;;;;;;10.38;4.75;;;;;;;;;;10407758;28;20036;-73
2022/05/24 16:40:38;;;;;;;8.82;4.70;;;;;;;;;;10407617;28;20124;-71
2022/05/24 16:45:39;;;;;;;14.60;5.50;;;;;;;;;;10407419;28;20020;-71
2022/05/24 16:50:39;;;;;;;10.43;5.72;;;;;;;;;;10390441;28;20286;-77
2022/05/24 17:00:59;;;;;;;9.65;5.30;;;;;;;;;;10407728;28;20033;-72
2022/05/24 17:06:00;;;;;;;9.88;4.97;;;;;;;;;;10407979;28;20056;-71
2022/05/24 17:11:00;;;;;;;8.23;4.53;;;;;;;;;;10406029;28;20120;-71
2022/05/24 17:16:00;;;;;;;8.90;5.18;;;;;;;;;;10405804;28;20085;-72
2022/05/24 17:21:02;;;;;;;6.50;4.93;;;;;;;;;;10405955;28;20027;-71
2022/05/24 17:26:02;;;;;;;9.25;5.85;;;;;;;;;;10405569;28;20087;-74
2022/05/24 17:31:04;;;;;;;12.50;5.75;;;;;;;;;;10406853;28;20025;-72
2022/05/24 17:36:05;;;;;;;12.40;6.43;;;;;;;;;;10389113;28;20047;-72
2022/05/24 17:41:17;;;;;;;9.20;5.88;;;;;;;;;;10405034;28;20033;-73
2022/05/24 17:46:17;;;;;;;11.00;6.00;;;;;;;;;;10405252;28;20087;-72
2022/05/24 17:51:20;;;;;;;10.37;6.13;;;;;;;;;;10404591;28;20021;-73
2022/05/24 17:56:20;;;;;;;11.90;5.57;;;;;;;;;;10404248;28;20026;-74
2022/05/24 18:01:20;;;;;;;7.70;5.47;;;;;;;;;;10404024;28;20025;-72
2022/05/24 18:06:20;;;;;;;12.48;5.75;;;;;;;;;;10404375;28;20028;-71
2022/05/24 18:11:21;;;;;;;7.70;5.38;;;;;;;;;;10403770;28;20555;-71
2022/05/24 18:16:22;;;;;;;8.40;5.53;;;;;;;;;;10403701;28;20449;-72
2022/05/24 18:21:25;;;;;;;10.73;6.30;;;;;;;;;;10404128;28;20116;-73
2022/05/24 18:37:08;;;;;;;11.93;5.25;;;;;;;;;;10405603;28;20109;-72
2022/05/24 18:42:11;;;;;;;10.02;6.25;;;;;;;;;;10386186;28;20024;-72
2022/05/24 18:47:12;;;;;;;11.70;6.88;;;;;;;;;;10403186;28;20116;-72
2022/05/24 18:52:12;;;;;;;14.65;7.28;;;;;;;;;;10402754;28;20029;-75
2022/05/24 18:57:12;;;;;;;9.67;5.30;;;;;;;;;;10402051;28;20021;-71
2022/05/24 19:02:13;;;;;;;8.80;6.27;;;;;;;;;;10385741;28;20032;-72
2022/05/24 19:07:16;;;;;;;8.77;5.97;;;;;;;;;;10402661;28;20017;-72
2022/05/24 19:12:16;;;;;;;13.82;6.15;;;;;;;;;;10403541;28;20056;-73
2022/05/24 19:17:19;;;;;;;9.35;5.60;;;;;;;;;;10402499;28;20514;-73
2022/05/24 19:22:22;;;;;;;10.75;6.80;;;;;;;;;;10402846;28;20154;-73
2022/05/24 19:27:24;;;;;;;14.20;6.05;;;;;;;;;;10402576;28;20021;-74
2022/05/24 19:32:25;;;;;;;8.75;6.05;;;;;;;;;;10401774;28;20057;-73
2022/05/24 19:37:25;;;;;;;11.43;7.20;;;;;;;;;;10402806;28;20544;-78
2022/05/24 19:42:25;;;;;;;12.07;5.57;;;;;;;;;;10401702;28;20370;-77
2022/05/24 19:47:26;;;;;;;14.25;6.00;;;;;;;;;;10403169;28;20021;-74
2022/05/24 19:52:27;;;;;;;13.93;6.00;;;;;;;;;;10401636;28;20022;-70
2022/05/24 19:57:27;;;;;;;12.30;5.85;;;;;;;;;;10402129;28;20029;-72
2022/05/24 20:02:28;;;;;;;9.15;6.20;;;;;;;;;;10401938;28;20025;-73
2022/05/24 20:07:28;;;;;;;9.65;5.90;;;;;;;;;;10402526;28;20735;-73
2022/05/24 20:12:28;;;;;;;8.63;5.83;;;;;;;;;;10401058;28;20108;-73
2022/05/24 20:17:30;;;;;;;15.53;6.17;;;;;;;;;;10405580;28;20195;-71
2022/05/24 20:22:31;;;;;;;11.02;6.88;;;;;;;;;;10408539;28;20026;-77
2022/05/24 20:27:31;;;;;;;19.20;6.90;;;;;;;;;;10407991;28;20021;-72
2022/05/24 20:32:31;;;;;;;10.80;6.65;;;;;;;;;;10407929;28;20044;-78
2022/05/24 20:37:32;;;;;;;9.18;7.03;;;;;;;;;;10407606;28;20017;-74
2022/05/24 20:42:32;;;;;;;9.40;6.88;;;;;;;;;;10407510;28;20014;-73
2022/05/24 20:47:32;;;;;;;11.88;7.38;;;;;;;;;;10407740;28;20032;-74
2022/05/24 20:52:33;;;;;;;9.57;8.00;;;;;;;;;;10408623;28;20044;-72
2022/05/24 20:57:33;;;;;;;13.00;7.30;;;;;;;;;;10406901;28;20108;-73
2022/05/24 21:02:33;;;;;;;12.52;6.53;;;;;;;;;;10408140;28;20164;-73
2022/05/24 21:07:34;;;;;;;11.90;7.80;;;;;;;;;;10408034;28;20025;-75
2022/05/24 21:12:36;;;;;;;22.67;7.53;;;;;;;;;;10406974;28;20532;-73
2022/05/24 21:17:37;;;;;;;13.63;7.55;;;;;;;;;;10406267;28;20529;-73
2022/05/24 21:22:37;;;;;;;9.45;7.38;;;;;;;;;;10407767;28;20021;-72
2022/05/24 21:33:01;;;;;;;13.88;7.55;;;;;;;;;;10407559;28;20022;-76
2022/05/24 21:38:02;;;;;;;10.30;6.78;;;;;;;;;;10405670;28;20621;-71
2022/05/24 21:43:02;;;;;;;13.57;7.82;;;;;;;;;;10405470;28;20409;-73
2022/05/24 21:48:07;;;;;;;12.87;7.67;;;;;;;;;;10405228;28;20671;-72
2022/05/24 21:53:10;;;;;;;14.63;8.18;;;;;;;;;;10405084;28;20287;-75
2022/05/24 21:58:10;;;;;;;9.30;6.88;;;;;;;;;;10404293;28;20025;-74
2022/05/24 22:03:10;;;;;;;15.07;7.53;;;;;;;;;;10404695;28;20013;-76
2022/05/24 22:08:11;;;;;;;12.83;7.87;;;;;;;;;;10405751;28;20469;-73
2022/05/24 22:13:12;;;;;;;8.02;7.15;;;;;;;;;;10404065;28;20082;-73
2022/05/24 22:18:12;;;;;;;13.88;8.05;;;;;;;;;;10404772;28;20049;-73
2022/05/24 22:23:13;;;;;;;9.80;7.75;;;;;;;;;;10403984;28;20397;-74
2022/05/24 22:28:13;;;;;;;15.40;9.05;;;;;;;;;;10403452;28;20022;-73
2022/05/24 22:33:14;;;;;;;12.80;8.65;;;;;;;;;;10403572;28;20021;-73
2022/05/24 22:38:14;;;;;;;13.85;9.35;;;;;;;;;;10402877;28;20022;-73
2022/05/24 22:43:15;;;;;;;12.52;9.45;;;;;;;;;;10403072;28;20022;-72
2022/05/24 22:48:15;;;;;;;16.02;8.93;;;;;;;;;;10403124;28;20049;-73
2022/05/24 22:53:15;;;;;;;22.08;11.45;;;;;;;;;;10404478;28;20030;-74
2022/05/24 22:58:16;;;;;;;20.90;11.37;;;;;;;;;;10387170;28;20132;-72
2022/05/24 23:03:16;;;;;;;18.20;9.95;;;;;;;;;;10402255;28;20017;-73
2022/05/24 23:08:16;;;;;;;15.32;10.00;;;;;;;;;;10402746;28;20020;-73
2022/05/24 23:13:17;;;;;;;13.55;10.30;;;;;;;;;;10385588;28;20047;-72
2022/05/24 23:18:17;;;;;;;18.10;9.90;;;;;;;;;;10401887;28;20018;-71
2022/05/24 23:23:18;;;;;;;15.83;10.10;;;;;;;;;;10386022;28;20040;-71
2022/05/24 23:28:18;;;;;;;16.65;9.60;;;;;;;;;;10402413;28;20022;-77
2022/05/24 23:33:19;;;;;;;17.23;8.90;;;;;;;;;;10401768;28;20071;-75
2022/05/24 23:38:19;;;;;;;16.95;9.00;;;;;;;;;;10402064;28;20030;-71
2022/05/24 23:43:20;;;;;;;12.97;8.23;;;;;;;;;;10401902;28;20013;-73
2022/05/24 23:48:21;;;;;;;8.85;7.95;;;;;;;;;;10401604;28;20075;-72
2022/05/24 23:53:21;;;;;;;19.50;9.52;;;;;;;;;;10407659;28;20079;-75
2022/05/24 23:58:22;;;;;;;11.47;9.73;;;;;;;;;;10409569;28;20018;-72
